Highland Heights, Kentucky
Current Conditions -  °F | °C
As of 8:53 AM on Tuesday 21 Oct 2014 (Local Time) from KLUK Reporting Station
Overcast Overcast  
Wind Chill: 50°   Ceiling: 6000
Heat Index: 50°   Visibility: 10mi
Dew Point: 45°   Wind: 6mph
Humidity: 83%   Direction: 320°NW
Pressure: 30.02"   Gusts: NA
Location:  39.0316°N, 84.4619°W
Report Text: KLUK 211253Z 32005KT 10SM OVC060 10/07 A3002 RMK AO2 SLP164 T01000072
Loading
Personal Weather Stations






























Interactive Weather Map New forecast layout! Learn more

10-Day Weather Forecast

Advertisements
Track Severe Weather on mobile